Philadelphia, Pennsylvania
Traffic Map
Current Weather Conditions
Philadelphia, Pennsylvania
Broken Clouds
Broken Clouds
92°
Feels Like: 96°
Wind Chill: 92° Ceiling: 30000
Heat Index: 96° Visibility: 10mi
Dew Point: 68° Wind: 16mph
Humidity: 45% Direction: 230° (SW)
Pressure: 29.94in Gusts: 0mph
Raw Report DataKPHL 181854Z 23014KT 10SM FEW055 BKN300 33/20 A2994 RMK AO2 SLP137 T03330200 $
Traffic Incident Summary
Active as of:
Severity:
Category:
InformationThere was an issue retrieving the traffic information for this location. Please try a different location or try again shortly.
Advertisements